sensor_id;sensor_type;location;lat;lon;timestamp;P1;durP1;ratioP1;P2;durP2;ratioP2
36597;SDS011;22607;49.550;11.940;2023-08-21T00:00:40;9.70;;;6.03;;
36597;SDS011;22607;49.550;11.940;2023-08-21T00:03:06;9.65;;;6.45;;
36597;SDS011;22607;49.550;11.940;2023-08-21T00:05:33;11.35;;;7.07;;
36597;SDS011;22607;49.550;11.940;2023-08-21T00:08:00;10.75;;;6.63;;
36597;SDS011;22607;49.550;11.940;2023-08-21T00:10:27;11.15;;;6.32;;
36597;SDS011;22607;49.550;11.940;2023-08-21T00:12:54;10.25;;;6.18;;
36597;SDS011;22607;49.550;11.940;2023-08-21T00:15:20;9.88;;;6.00;;
36597;SDS011;22607;49.550;11.940;2023-08-21T00:17:47;9.80;;;6.25;;
36597;SDS011;22607;49.550;11.940;2023-08-21T00:20:13;10.73;;;6.47;;
36597;SDS011;22607;49.550;11.940;2023-08-21T00:22:40;9.73;;;5.68;;
36597;SDS011;22607;49.550;11.940;2023-08-21T00:25:07;10.27;;;5.97;;
36597;SDS011;22607;49.550;11.940;2023-08-21T00:27:33;11.63;;;6.82;;
36597;SDS011;22607;49.550;11.940;2023-08-21T00:30:00;10.18;;;6.50;;
36597;SDS011;22607;49.550;11.940;2023-08-21T00:32:27;10.80;;;6.20;;
36597;SDS011;22607;49.550;11.940;2023-08-21T00:34:54;11.32;;;6.75;;
36597;SDS011;22607;49.550;11.940;2023-08-21T00:37:21;10.07;;;6.20;;
36597;SDS011;22607;49.550;11.940;2023-08-21T00:39:47;11.00;;;6.63;;
36597;SDS011;22607;49.550;11.940;2023-08-21T00:42:14;11.77;;;6.30;;
36597;SDS011;22607;49.550;11.940;2023-08-21T00:44:40;11.27;;;6.68;;
36597;SDS011;22607;49.550;11.940;2023-08-21T00:47:07;10.30;;;6.20;;
36597;SDS011;22607;49.550;11.940;2023-08-21T00:49:34;10.45;;;6.22;;
36597;SDS011;22607;49.550;11.940;2023-08-21T00:52:01;11.60;;;6.82;;
36597;SDS011;22607;49.550;11.940;2023-08-21T00:54:27;13.75;;;7.00;;
36597;SDS011;22607;49.550;11.940;2023-08-21T00:56:55;11.18;;;6.15;;
36597;SDS011;22607;49.550;11.940;2023-08-21T00:59:22;18.05;;;6.75;;
36597;SDS011;22607;49.550;11.940;2023-08-21T01:01:49;10.98;;;6.32;;
36597;SDS011;22607;49.550;11.940;2023-08-21T01:04:16;12.07;;;7.25;;
36597;SDS011;22607;49.550;11.940;2023-08-21T01:06:43;11.90;;;7.00;;
36597;SDS011;22607;49.550;11.940;2023-08-21T01:09:17;10.50;;;6.55;;
36597;SDS011;22607;49.550;11.940;2023-08-21T01:11:58;10.65;;;6.63;;
36597;SDS011;22607;49.550;11.940;2023-08-21T01:14:59;10.52;;;6.50;;
36597;SDS011;22607;49.550;11.940;2023-08-21T01:17:30;11.13;;;6.38;;
36597;SDS011;22607;49.550;11.940;2023-08-21T01:19:57;11.00;;;5.75;;
36597;SDS011;22607;49.550;11.940;2023-08-21T01:22:25;10.80;;;6.35;;
36597;SDS011;22607;49.550;11.940;2023-08-21T01:25:06;10.25;;;6.50;;
36597;SDS011;22607;49.550;11.940;2023-08-21T01:27:34;11.65;;;6.50;;
36597;SDS011;22607;49.550;11.940;2023-08-21T01:30:02;10.73;;;7.03;;
36597;SDS011;22607;49.550;11.940;2023-08-21T01:32:37;11.73;;;7.07;;
36597;SDS011;22607;49.550;11.940;2023-08-21T01:35:05;11.25;;;6.88;;
36597;SDS011;22607;49.550;11.940;2023-08-21T01:37:33;10.40;;;6.28;;
36597;SDS011;22607;49.550;11.940;2023-08-21T01:40:00;11.43;;;6.60;;
36597;SDS011;22607;49.550;11.940;2023-08-21T01:42:27;11.70;;;7.15;;
36597;SDS011;22607;49.550;11.940;2023-08-21T01:44:53;10.40;;;6.80;;
36597;SDS011;22607;49.550;11.940;2023-08-21T01:47:20;10.52;;;6.90;;
36597;SDS011;22607;49.550;11.940;2023-08-21T01:49:47;14.40;;;7.50;;
36597;SDS011;22607;49.550;11.940;2023-08-21T01:52:13;11.35;;;7.43;;
36597;SDS011;22607;49.550;11.940;2023-08-21T01:54:40;11.10;;;7.38;;
36597;SDS011;22607;49.550;11.940;2023-08-21T01:57:08;10.57;;;6.95;;
36597;SDS011;22607;49.550;11.940;2023-08-21T01:59:36;11.73;;;6.30;;
36597;SDS011;22607;49.550;11.940;2023-08-21T02:02:02;11.45;;;6.20;;
36597;SDS011;22607;49.550;11.940;2023-08-21T02:04:29;11.13;;;6.47;;
36597;SDS011;22607;49.550;11.940;2023-08-21T02:06:56;11.30;;;6.93;;
36597;SDS011;22607;49.550;11.940;2023-08-21T02:09:22;10.43;;;6.28;;
36597;SDS011;22607;49.550;11.940;2023-08-21T02:11:49;11.40;;;6.90;;
36597;SDS011;22607;49.550;11.940;2023-08-21T02:14:15;10.45;;;6.80;;
36597;SDS011;22607;49.550;11.940;2023-08-21T02:16:42;10.63;;;7.13;;
36597;SDS011;22607;49.550;11.940;2023-08-21T02:19:09;11.70;;;7.40;;
36597;SDS011;22607;49.550;11.940;2023-08-21T02:21:36;11.68;;;6.85;;
36597;SDS011;22607;49.550;11.940;2023-08-21T02:24:02;9.55;;;6.30;;
36597;SDS011;22607;49.550;11.940;2023-08-21T02:26:29;10.18;;;6.30;;
36597;SDS011;22607;49.550;11.940;2023-08-21T02:28:56;10.73;;;6.88;;
36597;SDS011;22607;49.550;11.940;2023-08-21T02:31:23;11.30;;;7.70;;
36597;SDS011;22607;49.550;11.940;2023-08-21T02:33:50;11.00;;;6.68;;
36597;SDS011;22607;49.550;11.940;2023-08-21T02:36:17;11.65;;;7.20;;
36597;SDS011;22607;49.550;11.940;2023-08-21T02:38:45;10.63;;;6.82;;
36597;SDS011;22607;49.550;11.940;2023-08-21T02:41:11;11.00;;;6.30;;
36597;SDS011;22607;49.550;11.940;2023-08-21T02:43:40;10.80;;;6.97;;
36597;SDS011;22607;49.550;11.940;2023-08-21T02:46:07;10.13;;;6.25;;
36597;SDS011;22607;49.550;11.940;2023-08-21T02:48:35;11.18;;;6.60;;
36597;SDS011;22607;49.550;11.940;2023-08-21T02:51:01;11.02;;;7.00;;
36597;SDS011;22607;49.550;11.940;2023-08-21T02:53:31;11.65;;;7.55;;
36597;SDS011;22607;49.550;11.940;2023-08-21T02:55:58;14.10;;;7.90;;
36597;SDS011;22607;49.550;11.940;2023-08-21T02:58:24;11.90;;;7.47;;
36597;SDS011;22607;49.550;11.940;2023-08-21T03:00:51;11.20;;;7.70;;
36597;SDS011;22607;49.550;11.940;2023-08-21T03:03:17;13.57;;;6.95;;
36597;SDS011;22607;49.550;11.940;2023-08-21T03:05:44;10.82;;;6.68;;
36597;SDS011;22607;49.550;11.940;2023-08-21T03:08:11;12.30;;;7.25;;
36597;SDS011;22607;49.550;11.940;2023-08-21T03:10:37;11.35;;;7.78;;
36597;SDS011;22607;49.550;11.940;2023-08-21T03:13:04;12.25;;;7.20;;
36597;SDS011;22607;49.550;11.940;2023-08-21T03:15:31;10.30;;;6.68;;
36597;SDS011;22607;49.550;11.940;2023-08-21T03:17:57;12.43;;;7.18;;
36597;SDS011;22607;49.550;11.940;2023-08-21T03:20:24;11.20;;;7.20;;
36597;SDS011;22607;49.550;11.940;2023-08-21T03:22:50;10.57;;;6.95;;
36597;SDS011;22607;49.550;11.940;2023-08-21T03:25:17;11.23;;;6.85;;
36597;SDS011;22607;49.550;11.940;2023-08-21T03:27:44;10.48;;;6.57;;
36597;SDS011;22607;49.550;11.940;2023-08-21T03:32:42;12.13;;;7.25;;
36597;SDS011;22607;49.550;11.940;2023-08-21T03:35:08;10.80;;;7.15;;
36597;SDS011;22607;49.550;11.940;2023-08-21T03:37:35;11.52;;;7.75;;
36597;SDS011;22607;49.550;11.940;2023-08-21T03:40:02;10.95;;;7.43;;
36597;SDS011;22607;49.550;11.940;2023-08-21T03:42:30;13.63;;;7.30;;
36597;SDS011;22607;49.550;11.940;2023-08-21T03:44:57;12.57;;;8.18;;
36597;SDS011;22607;49.550;11.940;2023-08-21T03:47:23;10.75;;;7.45;;
36597;SDS011;22607;49.550;11.940;2023-08-21T03:49:50;11.40;;;7.35;;
36597;SDS011;22607;49.550;11.940;2023-08-21T03:52:17;11.30;;;7.85;;
36597;SDS011;22607;49.550;11.940;2023-08-21T03:54:43;11.65;;;7.38;;
36597;SDS011;22607;49.550;11.940;2023-08-21T03:57:10;10.55;;;6.50;;
36597;SDS011;22607;49.550;11.940;2023-08-21T03:59:36;10.88;;;7.10;;
36597;SDS011;22607;49.550;11.940;2023-08-21T04:02:03;10.60;;;6.63;;
36597;SDS011;22607;49.550;11.940;2023-08-21T04:04:30;11.40;;;6.82;;
36597;SDS011;22607;49.550;11.940;2023-08-21T04:06:56;11.88;;;7.53;;
36597;SDS011;22607;49.550;11.940;2023-08-21T04:09:23;13.52;;;7.80;;
36597;SDS011;22607;49.550;11.940;2023-08-21T04:11:50;12.45;;;7.72;;
36597;SDS011;22607;49.550;11.940;2023-08-21T04:14:16;11.50;;;7.35;;
36597;SDS011;22607;49.550;11.940;2023-08-21T04:16:43;11.73;;;7.93;;
36597;SDS011;22607;49.550;11.940;2023-08-21T04:19:12;12.07;;;7.47;;
36597;SDS011;22607;49.550;11.940;2023-08-21T04:21:39;13.75;;;7.30;;
36597;SDS011;22607;49.550;11.940;2023-08-21T04:24:05;11.15;;;7.05;;
36597;SDS011;22607;49.550;11.940;2023-08-21T04:26:32;15.63;;;8.43;;
36597;SDS011;22607;49.550;11.940;2023-08-21T04:28:58;14.05;;;7.85;;
36597;SDS011;22607;49.550;11.940;2023-08-21T04:31:25;11.00;;;7.03;;
36597;SDS011;22607;49.550;11.940;2023-08-21T04:33:52;11.05;;;7.10;;
36597;SDS011;22607;49.550;11.940;2023-08-21T04:36:18;11.70;;;7.85;;
36597;SDS011;22607;49.550;11.940;2023-08-21T04:38:45;11.85;;;7.40;;
36597;SDS011;22607;49.550;11.940;2023-08-21T04:41:11;13.38;;;7.80;;
36597;SDS011;22607;49.550;11.940;2023-08-21T04:43:38;13.60;;;8.38;;
36597;SDS011;22607;49.550;11.940;2023-08-21T04:46:05;10.93;;;7.03;;
36597;SDS011;22607;49.550;11.940;2023-08-21T04:48:32;12.23;;;7.50;;
36597;SDS011;22607;49.550;11.940;2023-08-21T04:50:58;17.83;;;11.85;;
36597;SDS011;22607;49.550;11.940;2023-08-21T04:53:25;12.07;;;8.48;;
36597;SDS011;22607;49.550;11.940;2023-08-21T04:55:52;11.45;;;7.82;;
36597;SDS011;22607;49.550;11.940;2023-08-21T04:58:18;11.85;;;7.43;;
36597;SDS011;22607;49.550;11.940;2023-08-21T05:00:45;10.75;;;6.70;;
36597;SDS011;22607;49.550;11.940;2023-08-21T05:03:12;13.18;;;8.25;;
36597;SDS011;22607;49.550;11.940;2023-08-21T05:05:39;12.32;;;8.20;;
36597;SDS011;22607;49.550;11.940;2023-08-21T05:08:06;14.55;;;9.32;;
36597;SDS011;22607;49.550;11.940;2023-08-21T05:10:32;15.18;;;9.77;;
36597;SDS011;22607;49.550;11.940;2023-08-21T05:12:59;13.43;;;9.30;;
36597;SDS011;22607;49.550;11.940;2023-08-21T05:15:26;15.35;;;10.30;;
36597;SDS011;22607;49.550;11.940;2023-08-21T05:17:52;14.77;;;9.30;;
36597;SDS011;22607;49.550;11.940;2023-08-21T05:20:19;12.95;;;8.93;;
36597;SDS011;22607;49.550;11.940;2023-08-21T05:22:46;13.23;;;9.32;;
36597;SDS011;22607;49.550;11.940;2023-08-21T05:25:13;14.60;;;9.88;;
36597;SDS011;22607;49.550;11.940;2023-08-21T05:27:40;19.13;;;12.27;;
36597;SDS011;22607;49.550;11.940;2023-08-21T05:30:06;16.40;;;11.45;;
36597;SDS011;22607;49.550;11.940;2023-08-21T05:32:33;16.00;;;10.63;;
36597;SDS011;22607;49.550;11.940;2023-08-21T05:35:00;13.73;;;9.15;;
36597;SDS011;22607;49.550;11.940;2023-08-21T05:37:27;13.25;;;8.73;;
36597;SDS011;22607;49.550;11.940;2023-08-21T05:39:53;13.27;;;8.80;;
36597;SDS011;22607;49.550;11.940;2023-08-21T05:42:20;14.80;;;8.90;;
36597;SDS011;22607;49.550;11.940;2023-08-21T05:44:46;12.45;;;9.07;;
36597;SDS011;22607;49.550;11.940;2023-08-21T05:47:13;12.90;;;8.07;;
36597;SDS011;22607;49.550;11.940;2023-08-21T05:49:40;13.43;;;8.80;;
36597;SDS011;22607;49.550;11.940;2023-08-21T05:52:08;12.32;;;7.95;;
36597;SDS011;22607;49.550;11.940;2023-08-21T05:54:35;14.00;;;7.93;;
36597;SDS011;22607;49.550;11.940;2023-08-21T05:57:02;12.30;;;7.85;;
36597;SDS011;22607;49.550;11.940;2023-08-21T05:59:32;12.50;;;7.90;;
36597;SDS011;22607;49.550;11.940;2023-08-21T06:01:59;14.48;;;8.75;;
36597;SDS011;22607;49.550;11.940;2023-08-21T06:04:26;13.68;;;8.48;;
36597;SDS011;22607;49.550;11.940;2023-08-21T06:06:54;15.25;;;8.73;;
36597;SDS011;22607;49.550;11.940;2023-08-21T06:09:20;14.57;;;9.35;;
36597;SDS011;22607;49.550;11.940;2023-08-21T06:11:48;14.73;;;9.32;;
36597;SDS011;22607;49.550;11.940;2023-08-21T06:14:15;13.48;;;9.35;;
36597;SDS011;22607;49.550;11.940;2023-08-21T06:16:41;14.63;;;9.13;;
36597;SDS011;22607;49.550;11.940;2023-08-21T06:19:10;13.60;;;9.15;;
36597;SDS011;22607;49.550;11.940;2023-08-21T06:21:37;13.30;;;8.35;;
36597;SDS011;22607;49.550;11.940;2023-08-21T06:24:03;13.48;;;7.68;;
36597;SDS011;22607;49.550;11.940;2023-08-21T06:26:30;16.67;;;9.35;;
36597;SDS011;22607;49.550;11.940;2023-08-21T06:28:57;15.68;;;9.13;;
36597;SDS011;22607;49.550;11.940;2023-08-21T06:31:23;14.45;;;9.30;;
36597;SDS011;22607;49.550;11.940;2023-08-21T06:33:50;13.68;;;9.10;;
36597;SDS011;22607;49.550;11.940;2023-08-21T06:36:17;14.18;;;9.07;;
36597;SDS011;22607;49.550;11.940;2023-08-21T06:38:43;13.32;;;8.95;;
36597;SDS011;22607;49.550;11.940;2023-08-21T06:41:10;12.73;;;8.48;;
36597;SDS011;22607;49.550;11.940;2023-08-21T06:43:38;13.90;;;9.68;;
36597;SDS011;22607;49.550;11.940;2023-08-21T06:46:09;13.90;;;9.88;;
36597;SDS011;22607;49.550;11.940;2023-08-21T06:48:37;12.77;;;9.40;;
36597;SDS011;22607;49.550;11.940;2023-08-21T06:51:05;15.13;;;8.80;;
36597;SDS011;22607;49.550;11.940;2023-08-21T06:53:32;12.05;;;8.18;;
36597;SDS011;22607;49.550;11.940;2023-08-21T06:55:58;14.02;;;8.68;;
36597;SDS011;22607;49.550;11.940;2023-08-21T06:58:25;11.77;;;8.93;;
36597;SDS011;22607;49.550;11.940;2023-08-21T07:00:55;12.40;;;8.55;;
36597;SDS011;22607;49.550;11.940;2023-08-21T07:03:22;12.77;;;9.25;;
36597;SDS011;22607;49.550;11.940;2023-08-21T07:05:55;12.57;;;9.50;;
36597;SDS011;22607;49.550;11.940;2023-08-21T07:08:23;14.57;;;8.23;;
36597;SDS011;22607;49.550;11.940;2023-08-21T07:10:50;16.10;;;8.77;;
36597;SDS011;22607;49.550;11.940;2023-08-21T07:13:17;12.85;;;9.10;;
36597;SDS011;22607;49.550;11.940;2023-08-21T07:15:45;12.20;;;8.18;;
36597;SDS011;22607;49.550;11.940;2023-08-21T07:18:13;12.32;;;8.85;;
36597;SDS011;22607;49.550;11.940;2023-08-21T07:20:40;11.80;;;8.45;;
36597;SDS011;22607;49.550;11.940;2023-08-21T07:23:07;13.13;;;8.52;;
36597;SDS011;22607;49.550;11.940;2023-08-21T07:25:33;12.38;;;8.20;;
36597;SDS011;22607;49.550;11.940;2023-08-21T07:28:00;11.88;;;8.32;;
36597;SDS011;22607;49.550;11.940;2023-08-21T07:30:26;12.70;;;8.80;;
36597;SDS011;22607;49.550;11.940;2023-08-21T07:32:53;12.43;;;8.10;;
36597;SDS011;22607;49.550;11.940;2023-08-21T07:35:20;13.25;;;8.43;;
36597;SDS011;22607;49.550;11.940;2023-08-21T07:37:47;13.63;;;8.38;;
36597;SDS011;22607;49.550;11.940;2023-08-21T07:40:14;11.98;;;8.23;;
36597;SDS011;22607;49.550;11.940;2023-08-21T07:42:40;12.25;;;7.60;;
36597;SDS011;22607;49.550;11.940;2023-08-21T07:45:07;11.80;;;8.27;;
36597;SDS011;22607;49.550;11.940;2023-08-21T07:47:34;12.48;;;7.85;;
36597;SDS011;22607;49.550;11.940;2023-08-21T07:50:03;12.60;;;8.05;;
36597;SDS011;22607;49.550;11.940;2023-08-21T07:52:31;11.95;;;7.07;;
36597;SDS011;22607;49.550;11.940;2023-08-21T07:54:57;11.85;;;6.82;;
36597;SDS011;22607;49.550;11.940;2023-08-21T07:57:25;11.13;;;7.78;;
36597;SDS011;22607;49.550;11.940;2023-08-21T07:59:52;12.43;;;7.35;;
36597;SDS011;22607;49.550;11.940;2023-08-21T08:02:21;13.15;;;7.57;;
36597;SDS011;22607;49.550;11.940;2023-08-21T08:04:47;12.68;;;7.82;;
36597;SDS011;22607;49.550;11.940;2023-08-21T08:07:14;11.77;;;7.95;;
36597;SDS011;22607;49.550;11.940;2023-08-21T08:09:41;11.45;;;7.65;;
36597;SDS011;22607;49.550;11.940;2023-08-21T08:12:07;12.32;;;7.60;;
36597;SDS011;22607;49.550;11.940;2023-08-21T08:14:35;11.18;;;7.63;;
36597;SDS011;22607;49.550;11.940;2023-08-21T08:17:01;12.63;;;7.90;;
36597;SDS011;22607;49.550;11.940;2023-08-21T08:19:28;12.43;;;7.32;;
36597;SDS011;22607;49.550;11.940;2023-08-21T08:21:54;12.32;;;7.70;;
36597;SDS011;22607;49.550;11.940;2023-08-21T08:24:21;13.05;;;7.22;;
36597;SDS011;22607;49.550;11.940;2023-08-21T08:26:48;10.77;;;7.68;;
36597;SDS011;22607;49.550;11.940;2023-08-21T08:29:15;13.18;;;7.35;;
36597;SDS011;22607;49.550;11.940;2023-08-21T08:31:41;11.57;;;7.22;;
36597;SDS011;22607;49.550;11.940;2023-08-21T08:34:08;12.82;;;8.23;;
36597;SDS011;22607;49.550;11.940;2023-08-21T08:36:35;11.32;;;7.22;;
36597;SDS011;22607;49.550;11.940;2023-08-21T08:39:01;12.98;;;7.88;;
36597;SDS011;22607;49.550;11.940;2023-08-21T08:41:33;12.43;;;7.57;;
36597;SDS011;22607;49.550;11.940;2023-08-21T08:44:04;10.73;;;7.32;;
36597;SDS011;22607;49.550;11.940;2023-08-21T08:46:31;10.18;;;6.80;;
36597;SDS011;22607;49.550;11.940;2023-08-21T08:48:57;12.18;;;7.90;;
36597;SDS011;22607;49.550;11.940;2023-08-21T08:51:26;11.82;;;7.30;;
36597;SDS011;22607;49.550;11.940;2023-08-21T08:53:57;11.55;;;7.22;;
36597;SDS011;22607;49.550;11.940;2023-08-21T08:56:24;12.23;;;7.28;;
36597;SDS011;22607;49.550;11.940;2023-08-21T08:58:51;11.93;;;7.18;;
36597;SDS011;22607;49.550;11.940;2023-08-21T09:01:18;10.60;;;7.45;;
36597;SDS011;22607;49.550;11.940;2023-08-21T09:03:44;12.75;;;8.27;;
36597;SDS011;22607;49.550;11.940;2023-08-21T09:06:11;12.82;;;8.82;;
36597;SDS011;22607;49.550;11.940;2023-08-21T09:08:38;12.82;;;8.25;;
36597;SDS011;22607;49.550;11.940;2023-08-21T09:11:05;14.13;;;8.57;;
36597;SDS011;22607;49.550;11.940;2023-08-21T09:13:32;11.63;;;7.35;;
36597;SDS011;22607;49.550;11.940;2023-08-21T09:15:59;11.93;;;7.80;;
36597;SDS011;22607;49.550;11.940;2023-08-21T09:18:26;10.70;;;7.45;;
36597;SDS011;22607;49.550;11.940;2023-08-21T09:20:53;14.75;;;8.93;;
36597;SDS011;22607;49.550;11.940;2023-08-21T09:23:21;12.63;;;7.18;;
36597;SDS011;22607;49.550;11.940;2023-08-21T09:25:48;11.25;;;7.95;;
36597;SDS011;22607;49.550;11.940;2023-08-21T09:28:18;12.18;;;7.65;;
36597;SDS011;22607;49.550;11.940;2023-08-21T09:30:50;12.40;;;7.80;;
36597;SDS011;22607;49.550;11.940;2023-08-21T09:33:19;12.35;;;8.20;;
36597;SDS011;22607;49.550;11.940;2023-08-21T09:35:47;12.80;;;8.40;;
36597;SDS011;22607;49.550;11.940;2023-08-21T09:38:15;10.40;;;7.50;;
36597;SDS011;22607;49.550;11.940;2023-08-21T09:40:42;13.43;;;8.48;;
36597;SDS011;22607;49.550;11.940;2023-08-21T09:43:18;14.57;;;7.97;;
36597;SDS011;22607;49.550;11.940;2023-08-21T09:45:47;12.13;;;8.38;;
36597;SDS011;22607;49.550;11.940;2023-08-21T09:48:20;13.73;;;8.32;;
36597;SDS011;22607;49.550;11.940;2023-08-21T09:50:50;13.93;;;8.82;;
36597;SDS011;22607;49.550;11.940;2023-08-21T09:53:18;12.45;;;8.15;;
36597;SDS011;22607;49.550;11.940;2023-08-21T09:55:47;11.82;;;7.57;;
36597;SDS011;22607;49.550;11.940;2023-08-21T09:58:18;10.93;;;7.13;;
36597;SDS011;22607;49.550;11.940;2023-08-21T10:00:47;9.73;;;5.90;;
36597;SDS011;22607;49.550;11.940;2023-08-21T10:03:18;10.02;;;5.35;;
36597;SDS011;22607;49.550;11.940;2023-08-21T10:05:47;9.75;;;4.38;;
36597;SDS011;22607;49.550;11.940;2023-08-21T10:08:16;9.07;;;4.60;;
36597;SDS011;22607;49.550;11.940;2023-08-21T10:10:47;10.32;;;5.22;;
36597;SDS011;22607;49.550;11.940;2023-08-21T10:13:14;9.25;;;4.53;;
36597;SDS011;22607;49.550;11.940;2023-08-21T10:15:41;9.98;;;5.38;;
36597;SDS011;22607;49.550;11.940;2023-08-21T10:18:18;10.60;;;5.78;;
36597;SDS011;22607;49.550;11.940;2023-08-21T10:20:46;9.75;;;5.50;;
36597;SDS011;22607;49.550;11.940;2023-08-21T10:25:55;10.43;;;5.60;;
36597;SDS011;22607;49.550;11.940;2023-08-21T10:28:44;9.15;;;5.45;;
36597;SDS011;22607;49.550;11.940;2023-08-21T10:31:47;10.90;;;5.40;;
36597;SDS011;22607;49.550;11.940;2023-08-21T10:34:10;11.38;;;6.13;;
36597;SDS011;22607;49.550;11.940;2023-08-21T10:39:15;9.95;;;6.18;;
36597;SDS011;22607;49.550;11.940;2023-08-21T10:44:34;11.52;;;5.97;;
36597;SDS011;22607;49.550;11.940;2023-08-21T10:49:41;10.10;;;5.75;;
36597;SDS011;22607;49.550;11.940;2023-08-21T10:52:08;11.38;;;5.85;;
36597;SDS011;22607;49.550;11.940;2023-08-21T10:54:48;12.40;;;6.05;;
36597;SDS011;22607;49.550;11.940;2023-08-21T10:59:53;12.95;;;6.20;;
36597;SDS011;22607;49.550;11.940;2023-08-21T11:02:21;11.20;;;6.00;;
36597;SDS011;22607;49.550;11.940;2023-08-21T11:04:49;10.40;;;6.03;;
36597;SDS011;22607;49.550;11.940;2023-08-21T11:07:16;11.73;;;6.07;;
36597;SDS011;22607;49.550;11.940;2023-08-21T11:09:44;10.35;;;5.95;;
36597;SDS011;22607;49.550;11.940;2023-08-21T11:12:11;10.10;;;5.60;;
36597;SDS011;22607;49.550;11.940;2023-08-21T11:14:40;9.88;;;5.40;;
36597;SDS011;22607;49.550;11.940;2023-08-21T11:17:08;9.90;;;5.07;;
36597;SDS011;22607;49.550;11.940;2023-08-21T11:19:36;10.68;;;4.97;;
36597;SDS011;22607;49.550;11.940;2023-08-21T11:22:03;9.40;;;4.60;;
36597;SDS011;22607;49.550;11.940;2023-08-21T11:24:44;11.65;;;4.90;;
36597;SDS011;22607;49.550;11.940;2023-08-21T11:27:13;11.23;;;4.93;;
36597;SDS011;22607;49.550;11.940;2023-08-21T11:29:43;11.35;;;4.80;;
36597;SDS011;22607;49.550;11.940;2023-08-21T11:32:17;9.63;;;4.35;;
36597;SDS011;22607;49.550;11.940;2023-08-21T11:34:49;9.80;;;4.60;;
36597;SDS011;22607;49.550;11.940;2023-08-21T11:37:17;10.75;;;4.47;;
36597;SDS011;22607;49.550;11.940;2023-08-21T11:39:51;10.02;;;4.32;;
36597;SDS011;22607;49.550;11.940;2023-08-21T11:42:21;10.05;;;4.07;;
36597;SDS011;22607;49.550;11.940;2023-08-21T11:44:56;10.70;;;4.40;;
36597;SDS011;22607;49.550;11.940;2023-08-21T11:47:23;9.40;;;4.18;;
36597;SDS011;22607;49.550;11.940;2023-08-21T11:49:50;10.23;;;4.20;;
36597;SDS011;22607;49.550;11.940;2023-08-21T11:52:18;9.25;;;4.50;;
36597;SDS011;22607;49.550;11.940;2023-08-21T11:54:49;10.07;;;4.50;;
36597;SDS011;22607;49.550;11.940;2023-08-21T11:57:18;10.45;;;4.47;;
36597;SDS011;22607;49.550;11.940;2023-08-21T11:59:54;11.63;;;4.57;;
36597;SDS011;22607;49.550;11.940;2023-08-21T12:05:03;7.63;;;3.42;;
36597;SDS011;22607;49.550;11.940;2023-08-21T12:07:32;8.20;;;3.70;;
36597;SDS011;22607;49.550;11.940;2023-08-21T12:09:59;9.82;;;4.00;;
36597;SDS011;22607;49.550;11.940;2023-08-21T12:12:26;9.80;;;3.80;;
36597;SDS011;22607;49.550;11.940;2023-08-21T12:14:53;10.88;;;4.10;;
36597;SDS011;22607;49.550;11.940;2023-08-21T12:17:19;10.77;;;4.18;;
36597;SDS011;22607;49.550;11.940;2023-08-21T12:19:46;10.35;;;4.05;;
36597;SDS011;22607;49.550;11.940;2023-08-21T12:22:12;7.88;;;3.40;;
36597;SDS011;22607;49.550;11.940;2023-08-21T12:24:39;9.15;;;3.97;;
36597;SDS011;22607;49.550;11.940;2023-08-21T12:27:06;9.90;;;3.88;;
36597;SDS011;22607;49.550;11.940;2023-08-21T12:29:33;10.85;;;3.97;;
36597;SDS011;22607;49.550;11.940;2023-08-21T12:32:00;10.60;;;3.85;;
36597;SDS011;22607;49.550;11.940;2023-08-21T12:34:27;8.63;;;3.45;;
36597;SDS011;22607;49.550;11.940;2023-08-21T12:36:55;8.95;;;3.85;;
36597;SDS011;22607;49.550;11.940;2023-08-21T12:39:21;9.05;;;3.80;;
36597;SDS011;22607;49.550;11.940;2023-08-21T12:41:48;10.75;;;3.90;;
36597;SDS011;22607;49.550;11.940;2023-08-21T12:44:14;10.45;;;3.83;;
36597;SDS011;22607;49.550;11.940;2023-08-21T12:46:41;9.55;;;3.63;;
36597;SDS011;22607;49.550;11.940;2023-08-21T12:49:08;10.15;;;3.60;;
36597;SDS011;22607;49.550;11.940;2023-08-21T12:51:35;10.23;;;3.97;;
36597;SDS011;22607;49.550;11.940;2023-08-21T12:54:01;10.00;;;4.13;;
36597;SDS011;22607;49.550;11.940;2023-08-21T12:56:28;9.35;;;3.20;;
36597;SDS011;22607;49.550;11.940;2023-08-21T12:58:55;10.63;;;3.78;;
36597;SDS011;22607;49.550;11.940;2023-08-21T13:01:22;9.35;;;3.65;;
36597;SDS011;22607;49.550;11.940;2023-08-21T13:03:48;10.38;;;3.78;;
36597;SDS011;22607;49.550;11.940;2023-08-21T13:06:15;9.50;;;4.00;;
36597;SDS011;22607;49.550;11.940;2023-08-21T13:08:42;8.90;;;3.75;;
36597;SDS011;22607;49.550;11.940;2023-08-21T13:11:09;12.75;;;4.70;;
36597;SDS011;22607;49.550;11.940;2023-08-21T13:13:36;10.43;;;4.00;;
36597;SDS011;22607;49.550;11.940;2023-08-21T13:16:03;10.57;;;4.18;;
36597;SDS011;22607;49.550;11.940;2023-08-21T13:18:30;11.50;;;4.93;;
36597;SDS011;22607;49.550;11.940;2023-08-21T13:20:56;9.20;;;4.50;;
36597;SDS011;22607;49.550;11.940;2023-08-21T13:23:23;11.25;;;4.88;;
36597;SDS011;22607;49.550;11.940;2023-08-21T13:25:50;9.80;;;4.68;;
36597;SDS011;22607;49.550;11.940;2023-08-21T13:28:17;11.23;;;5.20;;
36597;SDS011;22607;49.550;11.940;2023-08-21T13:30:43;10.13;;;4.90;;
36597;SDS011;22607;49.550;11.940;2023-08-21T13:33:10;9.75;;;4.25;;
36597;SDS011;22607;49.550;11.940;2023-08-21T13:35:36;10.57;;;5.32;;
36597;SDS011;22607;49.550;11.940;2023-08-21T13:38:03;10.50;;;4.88;;
36597;SDS011;22607;49.550;11.940;2023-08-21T13:40:30;12.13;;;5.63;;
36597;SDS011;22607;49.550;11.940;2023-08-21T13:42:57;10.90;;;4.80;;
36597;SDS011;22607;49.550;11.940;2023-08-21T13:45:28;10.93;;;5.10;;
36597;SDS011;22607;49.550;11.940;2023-08-21T13:47:54;11.75;;;5.28;;
36597;SDS011;22607;49.550;11.940;2023-08-21T13:50:22;14.20;;;6.00;;
36597;SDS011;22607;49.550;11.940;2023-08-21T13:52:48;11.43;;;4.90;;
36597;SDS011;22607;49.550;11.940;2023-08-21T13:55:15;9.48;;;5.47;;
36597;SDS011;22607;49.550;11.940;2023-08-21T13:57:44;13.30;;;5.60;;
36597;SDS011;22607;49.550;11.940;2023-08-21T14:00:11;14.25;;;6.00;;
36597;SDS011;22607;49.550;11.940;2023-08-21T14:02:39;9.70;;;5.40;;
36597;SDS011;22607;49.550;11.940;2023-08-21T14:05:07;12.32;;;5.60;;
36597;SDS011;22607;49.550;11.940;2023-08-21T14:07:35;11.27;;;5.20;;
36597;SDS011;22607;49.550;11.940;2023-08-21T14:10:02;8.98;;;5.03;;
36597;SDS011;22607;49.550;11.940;2023-08-21T14:12:31;9.80;;;5.07;;
36597;SDS011;22607;49.550;11.940;2023-08-21T14:14:58;10.63;;;5.20;;
36597;SDS011;22607;49.550;11.940;2023-08-21T14:17:25;10.60;;;5.35;;
36597;SDS011;22607;49.550;11.940;2023-08-21T14:19:53;11.52;;;5.80;;
36597;SDS011;22607;49.550;11.940;2023-08-21T14:22:20;8.70;;;4.80;;
36597;SDS011;22607;49.550;11.940;2023-08-21T14:24:47;10.57;;;5.20;;
36597;SDS011;22607;49.550;11.940;2023-08-21T14:27:14;13.38;;;5.25;;
36597;SDS011;22607;49.550;11.940;2023-08-21T14:29:41;10.98;;;5.15;;
36597;SDS011;22607;49.550;11.940;2023-08-21T14:32:10;10.65;;;5.45;;
36597;SDS011;22607;49.550;11.940;2023-08-21T14:34:37;10.55;;;5.22;;
36597;SDS011;22607;49.550;11.940;2023-08-21T14:37:03;9.57;;;4.95;;
36597;SDS011;22607;49.550;11.940;2023-08-21T14:39:30;8.90;;;4.50;;
36597;SDS011;22607;49.550;11.940;2023-08-21T14:41:57;8.82;;;4.53;;
36597;SDS011;22607;49.550;11.940;2023-08-21T14:44:25;9.82;;;4.70;;